createdAt,value
2018-08-04T00:00:24.994Z,89
2018-08-04T00:01:24.989Z,89
2018-08-04T00:02:25.119Z,89
2018-08-04T00:03:25.021Z,89
2018-08-04T00:04:25.106Z,89
2018-08-04T00:05:24.542Z,89
2018-08-04T00:06:24.947Z,89
2018-08-04T00:07:24.506Z,89
2018-08-04T00:08:24.475Z,89
2018-08-04T00:09:24.991Z,89
2018-08-04T00:10:52.714Z,89
2018-08-04T00:11:24.929Z,89
2018-08-04T00:12:24.450Z,88
2018-08-04T00:13:24.989Z,88
2018-08-04T00:14:24.521Z,88
2018-08-04T00:15:25.092Z,88
2018-08-04T00:16:24.986Z,88
2018-08-04T00:17:24.474Z,89
2018-08-04T00:18:25.076Z,89
2018-08-04T00:19:25.057Z,89
2018-08-04T00:20:24.977Z,90
2018-08-04T00:22:37.619Z,90
2018-08-04T00:23:37.751Z,90
2018-08-04T00:24:37.747Z,90
2018-08-04T00:25:37.271Z,90
2018-08-04T00:26:37.654Z,90
2018-08-04T00:28:37.232Z,90
2018-08-04T00:29:37.171Z,90
2018-08-04T00:30:37.858Z,90
2018-08-04T00:31:37.289Z,90
2018-08-04T00:32:37.683Z,90
2018-08-04T00:33:37.169Z,90
2018-08-04T00:34:37.739Z,90
2018-08-04T00:35:37.192Z,89
2018-08-04T00:36:37.250Z,89
2018-08-04T00:37:37.649Z,89
2018-08-04T00:38:37.663Z,89
2018-08-04T00:39:37.227Z,89
2018-08-04T00:40:37.689Z,90
2018-08-04T00:41:37.226Z,90
2018-08-04T00:42:37.207Z,90
2018-08-04T00:43:37.597Z,90
2018-08-04T00:44:37.228Z,90
2018-08-04T00:45:37.761Z,90
2018-08-04T00:46:37.619Z,90
2018-08-04T00:47:37.692Z,90
2018-08-04T00:49:37.211Z,90
2018-08-04T00:50:38.210Z,90
2018-08-04T00:51:37.719Z,90
2018-08-04T00:53:37.255Z,89
2018-08-04T00:54:37.713Z,89
2018-08-04T00:55:37.269Z,89
2018-08-04T00:56:37.635Z,89
2018-08-04T00:57:37.679Z,89
2018-08-04T00:58:37.308Z,90
2018-08-04T00:59:37.276Z,90
2018-08-04T01:00:39.413Z,90
2018-08-04T01:01:37.263Z,90
2018-08-04T01:02:37.726Z,90
2018-08-04T01:04:37.688Z,90
2018-08-04T01:05:37.664Z,90
2018-08-04T01:06:37.305Z,90
2018-08-04T01:07:37.244Z,90
2018-08-04T01:09:37.676Z,90
2018-08-04T01:10:39.065Z,90
2018-08-04T01:11:37.744Z,90
2018-08-04T01:12:37.749Z,90
2018-08-04T01:14:37.251Z,91
2018-08-04T01:15:37.844Z,91
2018-08-04T01:16:37.778Z,91
2018-08-04T01:17:37.316Z,91
2018-08-04T01:18:37.756Z,91
2018-08-04T01:19:37.705Z,91
2018-08-04T01:20:48.066Z,91
2018-08-04T01:21:37.378Z,91
2018-08-04T01:22:37.335Z,91
2018-08-04T01:23:37.786Z,92
2018-08-04T01:24:37.329Z,92
2018-08-04T01:25:37.280Z,92
2018-08-04T01:26:37.795Z,92
2018-08-04T01:27:37.856Z,92
2018-08-04T01:28:37.399Z,91
2018-08-04T01:29:37.873Z,91
2018-08-04T01:30:37.925Z,91
2018-08-04T01:31:37.231Z,91
2018-08-04T01:32:37.329Z,91
2018-08-04T01:33:37.788Z,92
2018-08-04T01:34:37.744Z,92
2018-08-04T01:35:37.415Z,92
2018-08-04T01:36:37.715Z,92
2018-08-04T01:37:37.344Z,92
2018-08-04T01:38:37.521Z,92
2018-08-04T01:39:37.590Z,92
2018-08-04T01:40:37.850Z,92
2018-08-04T01:41:37.449Z,92
2018-08-04T01:42:37.440Z,92
2018-08-04T01:43:37.872Z,92
2018-08-04T01:44:37.402Z,92
2018-08-04T01:45:37.955Z,92
2018-08-04T01:46:37.402Z,92
2018-08-04T01:47:37.397Z,92
2018-08-04T01:48:37.817Z,92
2018-08-04T01:51:06.002Z,92
2018-08-04T01:51:37.944Z,92
2018-08-04T01:52:37.464Z,92
2018-08-04T01:53:37.888Z,92
2018-08-04T01:54:37.490Z,92
2018-08-04T01:55:37.377Z,92
2018-08-04T01:56:37.515Z,92
2018-08-04T01:57:37.934Z,92
2018-08-04T01:58:37.580Z,92
2018-08-04T01:59:37.421Z,93
2018-08-04T02:00:37.520Z,93
2018-08-04T02:01:38.150Z,93
2018-08-04T02:02:37.369Z,93
2018-08-04T02:03:37.528Z,93
2018-08-04T02:04:37.436Z,93
2018-08-04T02:05:37.858Z,93
2018-08-04T02:06:37.475Z,93
2018-08-04T02:07:38.124Z,93
2018-08-04T02:09:38.058Z,93
2018-08-04T02:10:37.885Z,93
2018-08-04T02:11:39.648Z,93
2018-08-04T02:12:37.366Z,93
2018-08-04T02:13:37.832Z,93
2018-08-04T02:14:37.917Z,93
2018-08-04T02:15:37.499Z,93
2018-08-04T02:17:37.887Z,93
2018-08-04T02:19:37.812Z,93
2018-08-04T02:20:37.440Z,93
2018-08-04T02:21:38.620Z,93
2018-08-04T02:22:37.412Z,93
2018-08-04T02:23:37.404Z,93
2018-08-04T02:24:37.362Z,93
2018-08-04T02:25:37.386Z,93
2018-08-04T02:26:37.966Z,93
2018-08-04T02:28:37.886Z,93
2018-08-04T02:29:37.434Z,93
2018-08-04T02:30:37.475Z,93
2018-08-04T02:31:37.482Z,93
2018-08-04T02:32:37.957Z,93
2018-08-04T02:33:37.906Z,93
2018-08-04T02:34:37.879Z,93
2018-08-04T02:35:37.413Z,93
2018-08-04T02:36:37.888Z,93
2018-08-04T02:37:37.989Z,93
2018-08-04T02:38:37.481Z,93
2018-08-04T02:39:37.932Z,93
2018-08-04T02:40:38.161Z,93
2018-08-04T02:43:37.948Z,94
2018-08-04T02:44:37.491Z,94
2018-08-04T02:45:37.558Z,94
2018-08-04T02:46:37.593Z,94
2018-08-04T02:47:38.009Z,93
2018-08-04T02:48:37.584Z,93
2018-08-04T02:49:37.460Z,93
2018-08-04T02:50:37.517Z,93
2018-08-04T02:51:38.044Z,93
2018-08-04T02:52:37.986Z,94
2018-08-04T02:53:38.065Z,94
2018-08-04T02:54:38.060Z,94
2018-08-04T02:55:37.961Z,94
2018-08-04T02:56:37.915Z,94
2018-08-04T02:57:37.535Z,94
2018-08-04T02:58:37.945Z,94
2018-08-04T02:59:37.920Z,94
2018-08-04T03:00:37.608Z,94
2018-08-04T03:01:38.004Z,94
2018-08-04T03:02:38.060Z,94
2018-08-04T03:03:38.220Z,94
2018-08-04T03:04:37.477Z,94
2018-08-04T03:05:37.506Z,93
2018-08-04T03:06:37.984Z,93
2018-08-04T03:07:37.940Z,93
2018-08-04T03:08:38.475Z,93
2018-08-04T03:09:37.501Z,93
2018-08-04T03:10:38.071Z,93
2018-08-04T03:11:37.443Z,93
2018-08-04T03:12:37.495Z,94
2018-08-04T03:13:37.481Z,94
2018-08-04T03:14:37.932Z,94
2018-08-04T03:15:37.508Z,94
2018-08-04T03:16:37.980Z,94
2018-08-04T03:17:38.000Z,94
2018-08-04T03:18:37.487Z,94
2018-08-04T03:20:37.446Z,93
2018-08-04T03:21:37.892Z,93
2018-08-04T03:22:38.338Z,94
2018-08-04T03:23:37.995Z,94
2018-08-04T03:24:37.511Z,94
2018-08-04T03:25:37.971Z,94
2018-08-04T03:26:37.502Z,94
2018-08-04T03:27:50.224Z,94
2018-08-04T03:28:37.956Z,94
2018-08-04T03:29:37.533Z,94
2018-08-04T03:30:38.284Z,94
2018-08-04T03:31:37.566Z,94
2018-08-04T03:32:37.512Z,94
2018-08-04T03:33:38.007Z,94
2018-08-04T03:34:37.560Z,94
2018-08-04T03:35:38.035Z,94
2018-08-04T03:36:37.925Z,94
2018-08-04T03:39:42.606Z,94
2018-08-04T03:40:42.603Z,94
2018-08-04T03:41:42.693Z,94
2018-08-04T03:42:43.092Z,94
2018-08-04T03:43:42.618Z,94
2018-08-04T03:44:43.011Z,94
2018-08-04T03:46:43.043Z,94
2018-08-04T03:47:43.034Z,94
2018-08-04T03:48:43.121Z,94
2018-08-04T03:49:43.675Z,94
2018-08-04T03:50:42.677Z,94
2018-08-04T03:51:43.049Z,94
2018-08-04T03:52:43.157Z,94
2018-08-04T03:53:42.585Z,94
2018-08-04T03:54:43.147Z,94
2018-08-04T03:55:42.608Z,94
2018-08-04T03:56:42.585Z,94
2018-08-04T03:57:42.676Z,94
2018-08-04T03:58:42.650Z,94
2018-08-04T03:59:42.732Z,94
2018-08-04T04:00:43.896Z,94
2018-08-04T04:01:43.129Z,94
2018-08-04T04:02:42.653Z,94
2018-08-04T04:03:42.638Z,94
2018-08-04T04:04:42.671Z,94
2018-08-04T04:05:42.652Z,94
2018-08-04T04:06:43.176Z,94
2018-08-04T04:07:44.944Z,94
2018-08-04T04:08:43.208Z,94
2018-08-04T04:09:43.119Z,94
2018-08-04T04:10:42.713Z,94
2018-08-04T04:11:43.244Z,94
2018-08-04T04:12:42.662Z,94
2018-08-04T04:13:42.642Z,95
2018-08-04T04:14:43.133Z,95
2018-08-04T04:16:42.761Z,95
2018-08-04T04:17:43.386Z,95
2018-08-04T04:19:42.710Z,95
2018-08-04T04:20:42.640Z,95
2018-08-04T04:21:43.900Z,95
2018-08-04T04:22:43.171Z,95
2018-08-04T04:23:43.322Z,95
2018-08-04T04:24:43.139Z,95
2018-08-04T04:25:42.687Z,95
2018-08-04T04:26:43.226Z,95
2018-08-04T04:27:43.704Z,95
2018-08-04T04:28:42.741Z,95
2018-08-04T04:29:42.747Z,95
2018-08-04T04:30:43.215Z,95
2018-08-04T04:31:42.693Z,95
2018-08-04T04:32:42.650Z,95
2018-08-04T04:34:43.205Z,95
2018-08-04T04:36:42.772Z,95
2018-08-04T04:37:43.670Z,95
2018-08-04T04:38:43.149Z,95
2018-08-04T04:39:43.091Z,95
2018-08-04T04:40:43.086Z,95
2018-08-04T04:41:42.702Z,95
2018-08-04T04:42:42.702Z,95
2018-08-04T04:43:42.725Z,95
2018-08-04T04:44:42.730Z,95
2018-08-04T04:45:43.319Z,95
2018-08-04T04:46:42.699Z,95
2018-08-04T04:47:43.236Z,95
2018-08-04T04:49:55.321Z,95
2018-08-04T04:50:55.373Z,95
2018-08-04T04:51:55.808Z,95
2018-08-04T04:52:55.408Z,95
2018-08-04T04:53:55.821Z,95
2018-08-04T04:54:55.345Z,95
2018-08-04T04:55:55.799Z,95
2018-08-04T04:56:55.399Z,95
2018-08-04T04:57:55.380Z,95
2018-08-04T04:58:55.443Z,95
2018-08-04T05:00:55.876Z,95
2018-08-04T05:01:55.396Z,95
2018-08-04T05:02:55.849Z,95
2018-08-04T05:03:55.414Z,95
2018-08-04T05:04:55.387Z,95
2018-08-04T05:05:55.376Z,95
2018-08-04T05:06:55.840Z,95
2018-08-04T05:08:55.414Z,95
2018-08-04T05:09:55.875Z,94
2018-08-04T05:10:56.358Z,94
2018-08-04T05:11:55.444Z,94
2018-08-04T05:12:55.835Z,94
2018-08-04T05:13:55.363Z,94
2018-08-04T05:14:55.349Z,95
2018-08-04T05:15:55.826Z,95
2018-08-04T05:16:55.388Z,95
2018-08-04T05:17:55.628Z,95
2018-08-04T05:18:55.544Z,95
2018-08-04T05:19:55.936Z,94
2018-08-04T05:21:56.092Z,94
2018-08-04T05:22:55.405Z,94
2018-08-04T05:23:55.942Z,94
2018-08-04T05:24:55.926Z,94
2018-08-04T05:25:55.396Z,94
2018-08-04T05:26:55.506Z,94
2018-08-04T05:27:55.917Z,93
2018-08-04T05:28:55.886Z,93
2018-08-04T05:29:55.449Z,92
2018-08-04T05:30:55.888Z,92
2018-08-04T05:31:55.449Z,92
2018-08-04T05:32:55.447Z,92
2018-08-04T05:33:55.924Z,92
2018-08-04T05:34:55.961Z,91
2018-08-04T05:35:56.430Z,91
2018-08-04T05:36:55.466Z,91
2018-08-04T05:37:55.921Z,89
2018-08-04T05:38:55.839Z,89
2018-08-04T05:39:55.483Z,88
2018-08-04T05:40:55.420Z,88
2018-08-04T05:41:58.124Z,88
2018-08-04T05:44:08.862Z,88
2018-08-04T05:45:08.482Z,87
2018-08-04T05:46:08.750Z,87
2018-08-04T05:47:08.516Z,87
2018-08-04T05:48:08.483Z,86
2018-08-04T05:49:08.801Z,86
2018-08-04T05:50:08.586Z,83
2018-08-04T05:51:08.508Z,83
2018-08-04T05:52:08.416Z,83
2018-08-04T05:53:08.468Z,83
2018-08-04T05:54:18.316Z,83
2018-08-04T05:55:08.407Z,82
2018-08-04T05:56:08.800Z,82
2018-08-04T05:57:08.891Z,82
2018-08-04T05:58:08.452Z,82
2018-08-04T05:59:08.415Z,82
2018-08-04T06:00:08.552Z,82
2018-08-04T06:01:08.357Z,81
2018-08-04T06:02:08.566Z,81
2018-08-04T06:03:08.364Z,79
2018-08-04T06:17:42.875Z,79
2018-08-04T06:17:53.155Z,79
2018-08-04T06:18:52.750Z,75
2018-08-04T06:19:52.595Z,75
2018-08-04T06:20:52.758Z,74
2018-08-04T06:21:52.649Z,74
2018-08-04T06:22:53.048Z,74
2018-08-04T06:24:53.054Z,73
2018-08-04T06:25:56.534Z,72
2018-08-04T06:26:52.842Z,72
2018-08-04T06:27:53.146Z,72
2018-08-04T06:28:52.851Z,72
2018-08-04T06:29:52.862Z,72
2018-08-04T06:30:52.804Z,71
2018-08-04T06:31:53.008Z,71
2018-08-04T06:32:53.097Z,71
2018-08-04T06:33:52.948Z,71
2018-08-04T06:34:52.847Z,71
2018-08-04T06:39:11.664Z,71
2018-08-04T06:39:22.534Z,71
2018-08-04T06:40:22.792Z,69
2018-08-04T06:41:22.569Z,69
2018-08-04T06:42:22.541Z,69
2018-08-04T06:43:22.812Z,69
2018-08-04T06:44:22.516Z,69
2018-08-04T06:45:22.532Z,69
2018-08-04T06:46:22.326Z,68
2018-08-04T06:47:22.591Z,68
2018-08-04T06:49:35.760Z,68
2018-08-04T06:50:36.113Z,68
2018-08-04T06:51:35.752Z,67
2018-08-04T06:52:35.639Z,67
2018-08-04T06:53:35.801Z,66
2018-08-04T06:54:36.067Z,66
2018-08-04T06:55:36.166Z,66
2018-08-04T06:56:36.078Z,65
2018-08-04T06:58:35.917Z,65
2018-08-04T06:59:45.933Z,65
2018-08-04T07:00:35.994Z,65
2018-08-04T07:01:35.638Z,66
2018-08-04T07:02:36.445Z,66
2018-08-04T07:04:35.895Z,66
2018-08-04T07:05:35.662Z,66
2018-08-04T07:06:36.103Z,65
2018-08-04T07:07:35.645Z,65
2018-08-04T07:08:36.110Z,65
2018-08-04T07:09:37.696Z,65
2018-08-04T07:10:36.180Z,65
2018-08-04T07:11:36.050Z,65
2018-08-04T07:12:35.722Z,65
2018-08-04T07:13:35.802Z,65
2018-08-04T07:14:36.465Z,65
2018-08-04T07:15:35.603Z,65
2018-08-04T07:16:36.080Z,62
2018-08-04T07:17:35.645Z,62
2018-08-04T07:18:36.189Z,62
2018-08-04T07:20:35.886Z,64
2018-08-04T07:22:35.854Z,64
2018-08-04T07:23:35.599Z,64
2018-08-04T07:24:36.148Z,64
2018-08-04T07:25:36.105Z,64
2018-08-04T07:27:35.793Z,64
2018-08-04T07:28:35.922Z,64
2018-08-04T07:29:35.771Z,65
2018-08-04T07:30:37.182Z,65
2018-08-04T07:31:35.680Z,65
2018-08-04T07:32:35.964Z,65
2018-08-04T07:33:35.879Z,65
2018-08-04T07:34:35.870Z,63
2018-08-04T07:35:35.889Z,63
2018-08-04T07:36:35.964Z,63
2018-08-04T07:38:35.964Z,64
2018-08-04T07:39:36.084Z,65
2018-08-04T07:40:36.028Z,65
2018-08-04T07:41:35.807Z,65
2018-08-04T07:42:36.172Z,65
2018-08-04T07:44:36.739Z,64
2018-08-04T07:45:36.139Z,64
2018-08-04T07:46:36.235Z,64
2018-08-04T07:47:36.491Z,63
2018-08-04T07:48:36.652Z,63
2018-08-04T07:49:35.888Z,63
2018-08-04T07:50:35.744Z,63
2018-08-04T07:51:35.942Z,63
2018-08-04T07:52:37.130Z,63
2018-08-04T07:53:35.840Z,63
2018-08-04T07:55:35.982Z,63
2018-08-04T07:56:36.069Z,63
2018-08-04T07:57:36.138Z,62
2018-08-04T07:58:36.741Z,62
2018-08-04T07:59:35.906Z,62
2018-08-04T08:00:36.177Z,62
2018-08-04T08:01:36.205Z,62
2018-08-04T08:02:35.982Z,63
2018-08-04T08:03:35.983Z,63
2018-08-04T08:04:35.782Z,63
2018-08-04T08:05:36.221Z,63
2018-08-04T08:06:36.390Z,63
2018-08-04T08:07:36.662Z,64
2018-08-04T08:08:36.219Z,64
2018-08-04T08:09:36.014Z,64
2018-08-04T08:10:36.668Z,63
2018-08-04T08:11:36.261Z,63
2018-08-04T08:12:36.207Z,62
2018-08-04T08:13:36.180Z,62
2018-08-04T08:14:37.067Z,62
2018-08-04T08:15:36.226Z,62
2018-08-04T08:16:36.109Z,62
2018-08-04T08:17:36.528Z,62
2018-08-04T08:18:37.058Z,62
2018-08-04T08:19:36.199Z,62
2018-08-04T08:20:37.536Z,61
2018-08-04T08:21:36.280Z,61
2018-08-04T08:22:36.541Z,61
2018-08-04T08:23:36.350Z,61
2018-08-04T08:24:35.842Z,61
2018-08-04T08:25:36.732Z,61
2018-08-04T08:26:36.334Z,61
2018-08-04T08:27:36.041Z,61
2018-08-04T08:28:36.241Z,60
2018-08-04T08:29:36.285Z,60
2018-08-04T08:30:36.713Z,59
2018-08-04T08:31:35.860Z,59
2018-08-04T08:32:36.153Z,59
2018-08-04T08:33:35.762Z,60
2018-08-04T08:34:36.096Z,60
2018-08-04T08:35:36.658Z,60
2018-08-04T08:36:36.012Z,60
2018-08-04T08:38:36.516Z,60
2018-08-04T08:39:36.519Z,60
2018-08-04T08:40:36.021Z,60
2018-08-04T08:41:36.181Z,60
2018-08-04T08:42:36.634Z,60
2018-08-04T08:44:36.853Z,60
2018-08-04T08:45:36.238Z,60
2018-08-04T08:46:36.073Z,60
2018-08-04T08:47:36.679Z,60
2018-08-04T08:48:36.056Z,60
2018-08-04T08:49:35.821Z,60
2018-08-04T08:50:36.318Z,59
2018-08-04T08:51:36.617Z,59
2018-08-04T08:52:36.216Z,59
2018-08-04T08:53:36.316Z,58
2018-08-04T08:54:36.373Z,58
2018-08-04T08:55:36.017Z,57
2018-08-04T08:56:36.039Z,57
2018-08-04T08:58:36.054Z,59
2018-08-04T08:59:35.795Z,59
2018-08-04T09:01:35.926Z,59
2018-08-04T09:02:35.833Z,59
2018-08-04T09:03:37.657Z,59
2018-08-04T09:04:35.902Z,59
2018-08-04T09:05:36.566Z,59
2018-08-04T09:06:36.258Z,60
2018-08-04T09:07:35.958Z,60
2018-08-04T09:08:35.915Z,60
2018-08-04T09:09:36.028Z,60
2018-08-04T09:10:35.796Z,60
2018-08-04T09:11:36.044Z,60
2018-08-04T09:14:17.020Z,60
2018-08-04T09:14:31.380Z,60
2018-08-04T09:15:32.175Z,59
2018-08-04T09:16:32.125Z,59
2018-08-04T09:17:32.069Z,59
2018-08-04T09:18:32.281Z,57
2018-08-04T09:19:32.494Z,57
2018-08-04T09:20:32.304Z,57
2018-08-04T09:21:32.536Z,56
2018-08-04T09:22:32.526Z,56
2018-08-04T09:24:45.026Z,56
2018-08-04T09:25:45.297Z,56
2018-08-04T09:26:45.307Z,55
2018-08-04T09:27:45.220Z,55
2018-08-04T09:28:45.142Z,55
2018-08-04T09:29:44.958Z,55
2018-08-04T09:30:45.072Z,55
2018-08-04T09:31:44.964Z,54
2018-08-04T09:32:46.101Z,54
2018-08-04T09:33:45.029Z,53
2018-08-04T09:34:44.947Z,53
2018-08-04T09:35:45.261Z,53
2018-08-04T09:36:45.150Z,53
2018-08-04T09:37:45.273Z,53
2018-08-04T09:38:45.034Z,53
2018-08-04T09:39:44.824Z,54
2018-08-04T09:40:45.276Z,54
2018-08-04T09:41:45.328Z,53
2018-08-04T09:43:45.934Z,53
2018-08-04T09:44:45.590Z,52
2018-08-04T09:45:45.460Z,52
2018-08-04T09:46:46.168Z,52
2018-08-04T09:47:45.489Z,52
2018-08-04T09:48:45.218Z,52
2018-08-04T09:49:45.422Z,52
2018-08-04T09:50:47.658Z,52
2018-08-04T09:51:45.275Z,52
2018-08-04T09:52:45.007Z,52
2018-08-04T09:53:45.184Z,52
2018-08-04T09:54:45.428Z,53
2018-08-04T09:55:45.244Z,53
2018-08-04T09:56:45.148Z,53
2018-08-04T09:57:45.058Z,53
2018-08-04T09:58:45.454Z,53
2018-08-04T09:59:45.204Z,50
2018-08-04T10:00:48.344Z,50
2018-08-04T10:01:46.060Z,49
2018-08-04T10:02:45.898Z,49
2018-08-04T10:03:45.220Z,49
2018-08-04T10:04:45.634Z,51
2018-08-04T10:05:46.294Z,51
2018-08-04T10:06:45.847Z,51
2018-08-04T10:08:46.784Z,50
2018-08-04T10:09:45.416Z,50
2018-08-04T10:10:45.103Z,50
2018-08-04T10:11:44.918Z,50
2018-08-04T10:12:44.880Z,49
2018-08-04T10:14:45.396Z,46
2018-08-04T10:15:46.585Z,46
2018-08-04T10:16:45.984Z,46
2018-08-04T10:17:45.599Z,47
2018-08-04T10:18:45.605Z,47
2018-08-04T10:19:45.731Z,46
2018-08-04T10:20:45.677Z,46
2018-08-04T10:21:45.489Z,46
2018-08-04T10:22:45.391Z,47
2018-08-04T10:23:44.857Z,47
2018-08-04T10:24:45.277Z,46
2018-08-04T10:25:44.971Z,46
2018-08-04T10:30:46.119Z,46
2018-08-04T10:32:44.946Z,46
2018-08-04T10:33:45.418Z,46
2018-08-04T10:34:44.965Z,47
2018-08-04T10:35:44.980Z,47
2018-08-04T10:36:47.261Z,47
2018-08-04T10:37:45.495Z,47
2018-08-04T10:38:45.427Z,47
2018-08-04T10:39:45.670Z,47
2018-08-04T10:40:44.955Z,46
2018-08-04T10:41:45.339Z,46
2018-08-04T10:42:45.439Z,45
2018-08-04T10:43:45.356Z,45
2018-08-04T10:44:45.734Z,45
2018-08-04T10:45:46.133Z,45
2018-08-04T10:47:44.903Z,46
2018-08-04T10:48:44.914Z,46
2018-08-04T10:49:45.627Z,46
2018-08-04T10:50:45.170Z,43
2018-08-04T10:52:45.176Z,43
2018-08-04T10:53:45.388Z,43
2018-08-04T10:54:44.980Z,43
2018-08-04T10:55:45.128Z,44
2018-08-04T10:56:45.151Z,44
2018-08-04T10:57:45.350Z,45
2018-08-04T10:58:44.961Z,45
2018-08-04T10:59:45.415Z,45
2018-08-04T11:00:45.488Z,44
2018-08-04T11:01:45.370Z,44
2018-08-04T11:02:45.430Z,44
2018-08-04T11:03:45.019Z,44
2018-08-04T11:07:45.871Z,44
2018-08-04T11:09:48.057Z,43
2018-08-04T11:10:45.041Z,42
2018-08-04T11:11:45.169Z,42
2018-08-04T11:12:45.101Z,42
2018-08-04T11:13:45.707Z,41
2018-08-04T11:14:45.017Z,41
2018-08-04T11:15:45.462Z,41
2018-08-04T11:16:45.063Z,41
2018-08-04T11:17:45.184Z,41
2018-08-04T11:18:45.224Z,41
2018-08-04T11:19:45.212Z,41
2018-08-04T11:20:45.019Z,41
2018-08-04T11:21:45.079Z,41
2018-08-04T11:22:45.316Z,41
2018-08-04T11:23:45.259Z,41
2018-08-04T11:24:45.157Z,41
2018-08-04T11:25:45.233Z,41
2018-08-04T11:26:45.210Z,41
2018-08-04T11:27:45.238Z,41
2018-08-04T11:28:45.302Z,41
2018-08-04T11:29:45.251Z,41
2018-08-04T11:30:45.365Z,41
2018-08-04T11:31:45.244Z,41
2018-08-04T11:32:45.051Z,41
2018-08-04T11:33:45.347Z,40
2018-08-04T11:34:45.323Z,40
2018-08-04T11:35:45.525Z,39
2018-08-04T11:36:45.584Z,39
2018-08-04T11:37:45.384Z,39
2018-08-04T11:38:45.084Z,36
2018-08-04T11:39:45.049Z,36
2018-08-04T11:40:45.252Z,36
2018-08-04T11:42:45.065Z,38
2018-08-04T11:53:49.812Z,38
2018-08-04T11:54:50.414Z,39
2018-08-04T11:55:50.417Z,39
2018-08-04T11:56:50.443Z,37
2018-08-04T11:57:50.281Z,37
2018-08-04T11:58:50.441Z,37
2018-08-04T11:59:50.451Z,37
2018-08-04T12:00:50.403Z,37
2018-08-04T12:01:50.486Z,36
2018-08-04T12:02:50.474Z,36
2018-08-04T12:06:03.481Z,37
2018-08-04T12:07:03.616Z,39
2018-08-04T12:08:03.837Z,39
2018-08-04T12:09:03.409Z,39
2018-08-04T12:11:04.202Z,39
2018-08-04T12:12:03.670Z,40
2018-08-04T12:13:03.687Z,40
2018-08-04T12:15:04.135Z,40
2018-08-04T12:16:03.945Z,40
2018-08-04T12:17:03.527Z,38
2018-08-04T12:18:03.652Z,38
2018-08-04T12:19:04.054Z,38
2018-08-04T12:21:03.738Z,38
2018-08-04T12:22:03.491Z,39
2018-08-04T12:23:03.708Z,39
2018-08-04T12:24:03.565Z,38
2018-08-04T12:25:03.863Z,38
2018-08-04T12:26:03.604Z,38
2018-08-04T12:27:03.930Z,36
2018-08-04T12:28:03.692Z,36
2018-08-04T12:29:03.933Z,36
2018-08-04T12:30:03.548Z,37
2018-08-04T12:31:03.946Z,37
2018-08-04T12:32:03.633Z,37
2018-08-04T12:33:03.714Z,37
2018-08-04T12:34:03.486Z,37
2018-08-04T12:35:04.426Z,39
2018-08-04T12:36:03.490Z,39
2018-08-04T12:37:03.753Z,38
2018-08-04T12:39:08.878Z,38
2018-08-04T12:40:03.765Z,38
2018-08-04T12:41:03.900Z,38
2018-08-04T12:42:03.598Z,39
2018-08-04T12:43:03.569Z,39
2018-08-04T12:44:03.852Z,39
2018-08-04T12:45:04.134Z,39
2018-08-04T12:46:03.898Z,39
2018-08-04T12:47:03.449Z,39
2018-08-04T12:48:03.935Z,39
2018-08-04T12:50:03.945Z,38
2018-08-04T12:51:06.319Z,38
2018-08-04T12:52:04.445Z,38
2018-08-04T12:54:05.085Z,38
2018-08-04T13:03:19.004Z,37
2018-08-04T13:04:18.778Z,36
2018-08-04T13:05:18.894Z,35
2018-08-04T13:06:18.646Z,35
2018-08-04T13:07:18.656Z,34
2018-08-04T13:08:19.038Z,34
2018-08-04T13:10:19.014Z,34
2018-08-04T13:12:18.693Z,36
2018-08-04T13:13:18.758Z,36
2018-08-04T13:14:18.998Z,36
2018-08-04T13:15:18.819Z,36
2018-08-04T13:16:18.942Z,36
2018-08-04T13:17:18.605Z,36
2018-08-04T13:18:18.732Z,36
2018-08-04T13:19:18.495Z,36
2018-08-04T13:21:18.996Z,36
2018-08-04T13:22:18.573Z,36
2018-08-04T13:23:18.532Z,34
2018-08-04T13:24:18.719Z,34
2018-08-04T13:25:19.178Z,34
2018-08-04T13:27:19.012Z,34
2018-08-04T13:28:18.815Z,33
2018-08-04T13:29:18.794Z,33
2018-08-04T13:30:18.855Z,32
2018-08-04T13:31:18.548Z,32
2018-08-04T13:32:19.637Z,32
2018-08-04T13:33:19.608Z,30
2018-08-04T13:34:20.637Z,30
2018-08-04T13:35:18.628Z,31
2018-08-04T13:36:18.705Z,31
2018-08-04T13:37:18.919Z,31
2018-08-04T13:38:19.030Z,30
2018-08-04T13:39:18.767Z,30
2018-08-04T13:40:18.889Z,31
2018-08-04T13:42:18.794Z,31
2018-08-04T13:43:18.853Z,32
2018-08-04T13:44:18.652Z,32
2018-08-04T13:46:18.812Z,31
2018-08-04T13:47:18.627Z,31
2018-08-04T13:48:18.704Z,32
2018-08-04T13:49:19.064Z,32
2018-08-04T13:50:19.246Z,32
2018-08-04T13:51:18.646Z,34
2018-08-04T13:52:18.672Z,34
2018-08-04T13:53:18.612Z,33
2018-08-04T13:54:23.454Z,33
2018-08-04T13:55:28.858Z,33
2018-08-04T13:56:18.901Z,31
2018-08-04T13:57:18.947Z,31
2018-08-04T13:58:18.861Z,34
2018-08-04T13:59:19.057Z,34
2018-08-04T14:00:19.103Z,34
2018-08-04T14:01:20.095Z,34
2018-08-04T14:02:18.684Z,34
2018-08-04T14:03:19.222Z,32
2018-08-04T14:04:18.942Z,32
2018-08-04T14:05:19.450Z,32
2018-08-04T14:06:19.086Z,33
2018-08-04T14:07:18.794Z,33
2018-08-04T14:08:19.193Z,35
2018-08-04T14:09:18.689Z,35
2018-08-04T14:12:18.805Z,32
2018-08-04T14:14:11.597Z,33
2018-08-04T14:14:20.539Z,33
2018-08-04T14:15:20.654Z,33
2018-08-04T14:16:20.836Z,32
2018-08-04T14:17:20.588Z,32
2018-08-04T14:19:20.580Z,33
2018-08-04T14:20:20.522Z,33
2018-08-04T14:21:20.359Z,33
2018-08-04T14:22:20.667Z,33
2018-08-04T14:23:20.835Z,33
2018-08-04T14:25:33.312Z,33
2018-08-04T14:26:33.454Z,33
2018-08-04T14:27:33.587Z,33
2018-08-04T14:28:33.568Z,33
2018-08-04T14:29:33.062Z,32
2018-08-04T14:30:33.507Z,32
2018-08-04T14:32:33.494Z,33
2018-08-04T14:33:33.213Z,33
2018-08-04T14:34:33.018Z,32
2018-08-04T14:36:33.275Z,32
2018-08-04T14:37:32.996Z,32
2018-08-04T14:38:33.492Z,32
2018-08-04T14:40:33.279Z,31
2018-08-04T14:42:33.237Z,31
2018-08-04T14:43:33.219Z,31
2018-08-04T14:44:33.252Z,31
2018-08-04T14:45:33.051Z,31
2018-08-04T14:46:33.071Z,32
2018-08-04T14:47:33.087Z,32
2018-08-04T14:48:33.023Z,32
2018-08-04T14:49:33.165Z,31
2018-08-04T14:50:33.280Z,31
2018-08-04T14:51:33.490Z,29
2018-08-04T14:52:33.146Z,29
2018-08-04T14:53:33.308Z,29
2018-08-04T14:54:33.596Z,30
2018-08-04T14:55:33.289Z,30
2018-08-04T14:56:33.507Z,28
2018-08-04T14:57:33.311Z,28
2018-08-04T14:58:33.341Z,28
2018-08-04T14:59:33.276Z,28
2018-08-04T15:00:34.314Z,28
2018-08-04T15:01:33.312Z,28
2018-08-04T15:02:33.496Z,28
2018-08-04T15:03:33.558Z,28
2018-08-04T15:04:33.446Z,28
2018-08-04T15:05:33.318Z,28
2018-08-04T15:06:33.114Z,28
2018-08-04T15:08:33.560Z,28
2018-08-04T15:09:33.626Z,28
2018-08-04T15:10:33.395Z,28
2018-08-04T15:11:33.628Z,28
2018-08-04T15:12:33.296Z,28
2018-08-04T15:13:33.188Z,28
2018-08-04T15:14:33.122Z,29
2018-08-04T15:15:33.651Z,29
2018-08-04T15:16:33.335Z,29
2018-08-04T15:17:33.291Z,28
2018-08-04T15:19:33.290Z,28
2018-08-04T15:20:33.285Z,28
2018-08-04T15:21:33.433Z,28
2018-08-04T15:22:33.103Z,28
2018-08-04T15:23:33.403Z,28
2018-08-04T15:24:33.325Z,29
2018-08-04T15:25:33.624Z,29
2018-08-04T15:26:33.593Z,29
2018-08-04T15:29:25.695Z,31
2018-08-04T15:29:34.600Z,31
2018-08-04T15:30:34.614Z,29
2018-08-04T15:31:34.546Z,29
2018-08-04T15:32:34.392Z,31
2018-08-04T15:33:34.772Z,31
2018-08-04T15:34:34.613Z,31
2018-08-04T15:35:34.606Z,31
2018-08-04T15:36:34.592Z,31
2018-08-04T15:37:34.839Z,29
2018-08-04T15:38:34.815Z,29
2018-08-04T15:39:35.950Z,29
2018-08-04T15:40:34.810Z,29
2018-08-04T15:41:34.619Z,29
2018-08-04T15:42:34.405Z,30
2018-08-04T15:43:34.386Z,30
2018-08-04T15:44:34.592Z,30
2018-08-04T15:45:34.795Z,32
2018-08-04T15:46:34.673Z,32
2018-08-04T15:47:34.638Z,33
2018-08-04T15:59:22.683Z,33
2018-08-04T16:00:22.811Z,35
2018-08-04T16:01:22.911Z,35
2018-08-04T16:02:23.208Z,35
2018-08-04T16:03:23.206Z,35
2018-08-04T16:04:23.003Z,35
2018-08-04T16:05:22.722Z,35
2018-08-04T16:06:23.541Z,35
2018-08-04T16:07:22.969Z,35
2018-08-04T16:08:23.229Z,35
2018-08-04T16:09:23.128Z,35
2018-08-04T16:10:23.221Z,35
2018-08-04T16:11:23.159Z,35
2018-08-04T16:12:22.983Z,35
2018-08-04T16:13:22.907Z,36
2018-08-04T16:14:23.190Z,36
2018-08-04T16:15:23.162Z,36
2018-08-04T16:16:23.230Z,36
2018-08-04T16:17:23.912Z,36
2018-08-04T16:18:23.064Z,37
2018-08-04T16:19:22.956Z,37
2018-08-04T16:20:22.983Z,37
2018-08-04T16:21:23.157Z,37
2018-08-04T16:22:23.001Z,37
2018-08-04T16:23:23.092Z,37
2018-08-04T16:24:23.074Z,37